Conwy, United Kingdom
Current Conditions -  °F | °C
As of 9:50 AM on Sunday 21 Dec 2014 (Local Time) from EGOV Reporting Station
Haze Haze  
Wind Chill: 52°   Ceiling: 1800
Heat Index: 52°   Visibility: 6mi
Dew Point: 48°   Wind: 26mph
Humidity: 88%   Direction: 210°SSW
Pressure: 30.15"   Gusts: NA
Location:  53.28°N, 3.83°W
Report Text: EGOV 210950Z AUTO 21023KT 9000 HZ FEW011/// BKN018/// 11/09 Q1021
Loading
Personal Weather Stations






























Interactive Weather Map New forecast layout! Learn more

10-Day Weather Forecast

Advertisements
Track Severe Weather on mobile